Time;durP1;ratioP1;P1;durP2;ratioP2;P2;SDS_P1;SDS_P2;PMS_P1;PMS_P2;Temp;Humidity;BMP_temperature;BMP_pressure;BME280_temperature;BME280_humidity;BME280_pressure;Samples;Min_cycle;Max_cycle;Signal;HPM_P1;HPM_P2
2023/07/06 00:02:05;;;;;;;9.83;4.07;;;18.60;79.60;;;;;;4884432;29;20052;-88
2023/07/06 00:04:32;;;;;;;10.73;3.85;;;18.50;79.90;;;;;;4899062;29;20558;-88
2023/07/06 00:06:59;;;;;;;10.30;3.17;;;18.40;80.30;;;;;;4883529;29;20525;-88
2023/07/06 00:09:26;;;;;;;11.07;3.88;;;18.40;80.30;;;;;;4888230;29;20056;-89
2023/07/06 00:11:53;;;;;;;10.65;3.95;;;18.40;80.00;;;;;;4899154;29;20044;-88
2023/07/06 00:14:24;;;;;;;8.63;3.97;;;18.50;80.20;;;;;;4884237;29;20083;-89
2023/07/06 00:17:08;;;;;;;9.30;3.53;;;18.50;80.30;;;;;;4887540;29;20049;-89
2023/07/06 00:19:35;;;;;;;9.85;3.80;;;18.50;80.10;;;;;;4916215;29;20049;-89
2023/07/06 00:22:02;;;;;;;9.43;3.78;;;18.40;80.00;;;;;;4883156;29;20071;-89
2023/07/06 00:24:29;;;;;;;11.30;4.60;;;18.40;80.10;;;;;;4914697;29;20048;-89
2023/07/06 00:26:56;;;;;;;10.10;3.50;;;18.50;79.70;;;;;;4894320;29;20398;-89
2023/07/06 00:29:23;;;;;;;7.82;3.60;;;18.50;79.40;;;;;;4900103;29;20060;-89
2023/07/06 00:31:51;;;;;;;9.27;3.90;;;18.50;79.40;;;;;;4887037;29;20040;-89
2023/07/06 00:34:19;;;;;;;9.27;3.92;;;18.50;79.30;;;;;;4902514;29;20055;-90
2023/07/06 00:36:47;;;;;;;10.70;4.05;;;18.40;79.50;;;;;;4883409;29;20040;-89
2023/07/06 00:39:14;;;;;;;12.10;3.77;;;18.40;79.40;;;;;;4902304;29;20048;-90
2023/07/06 00:41:43;;;;;;;9.20;3.38;;;18.40;79.30;;;;;;4886632;29;20402;-89
2023/07/06 00:44:46;;;;;;;11.50;3.78;;;18.40;79.20;;;;;;4890932;29;20063;-89
2023/07/06 00:47:13;;;;;;;9.38;3.95;;;18.40;79.10;;;;;;4886479;29;20079;-89
2023/07/06 00:49:41;;;;;;;9.23;3.88;;;18.40;79.20;;;;;;4901903;29;20044;-89
2023/07/06 00:52:10;;;;;;;10.27;4.03;;;18.40;79.10;;;;;;4899740;29;20051;-89
2023/07/06 00:54:42;;;;;;;12.02;3.75;;;18.40;79.10;;;;;;4886275;29;20044;-89
2023/07/06 00:57:11;;;;;;;9.48;3.88;;;18.30;79.20;;;;;;4883755;29;20045;-88
2023/07/06 00:59:40;;;;;;;8.75;3.63;;;18.30;79.20;;;;;;4900447;29;20127;-89
2023/07/06 01:02:13;;;;;;;8.77;3.25;;;18.30;79.30;;;;;;4900640;29;20451;-89
2023/07/06 01:04:41;;;;;;;10.73;3.87;;;18.30;79.10;;;;;;4886188;29;20072;-89
2023/07/06 01:07:14;;;;;;;7.80;3.28;;;18.30;78.90;;;;;;4891981;29;20055;-89
2023/07/06 01:09:42;;;;;;;7.93;3.70;;;18.20;78.80;;;;;;4901892;29;20056;-89
2023/07/06 01:12:09;;;;;;;9.73;3.53;;;18.20;78.80;;;;;;4901558;29;20520;-88
2023/07/06 01:14:37;;;;;;;9.60;3.08;;;18.20;78.80;;;;;;4886061;29;20132;-89
2023/07/06 01:17:14;;;;;;;10.27;3.53;;;18.10;78.90;;;;;;4899162;29;20479;-89
2023/07/06 01:19:55;;;;;;;8.07;3.55;;;18.10;78.80;;;;;;4891618;29;20078;-89
2023/07/06 01:22:40;;;;;;;8.75;3.30;;;18.10;78.70;;;;;;4884505;29;20048;-89
2023/07/06 01:25:40;;;;;;;8.35;3.28;;;18.10;78.40;;;;;;4884803;29;20135;-89
2023/07/06 01:28:35;;;;;;;8.82;3.47;;;18.10;78.40;;;;;;4884350;29;20132;-89
2023/07/06 01:31:02;;;;;;;10.23;3.00;;;18.00;78.50;;;;;;4883448;29;20083;-88
2023/07/06 01:33:52;;;;;;;10.43;2.85;;;18.00;78.60;;;;;;4901137;29;20104;-89
2023/07/06 01:36:43;;;;;;;7.65;3.15;;;18.00;78.70;;;;;;4906429;29;20114;-89
2023/07/06 01:39:18;;;;;;;8.00;2.80;;;18.00;78.20;;;;;;4885749;29;20040;-89
2023/07/06 01:41:48;;;;;;;10.20;3.10;;;18.00;78.20;;;;;;4888362;29;20528;-89
2023/07/06 01:44:16;;;;;;;8.00;2.80;;;17.90;78.30;;;;;;4893629;29;20388;-89
2023/07/06 01:46:49;;;;;;;6.85;2.33;;;17.90;78.40;;;;;;4884654;29;20044;-88
2023/07/06 01:49:18;;;;;;;8.68;2.90;;;17.90;78.30;;;;;;4884459;29;20040;-88
2023/07/06 01:52:03;;;;;;;7.13;2.50;;;17.90;78.00;;;;;;4900726;29;20063;-88
2023/07/06 01:54:42;;;;;;;7.47;3.15;;;17.90;78.30;;;;;;4900099;29;20044;-89
2023/07/06 01:57:18;;;;;;;7.70;2.60;;;17.80;78.50;;;;;;4884250;29;20044;-90
2023/07/06 01:59:50;;;;;;;7.97;2.88;;;17.60;79.00;;;;;;4899830;29;20084;-88
2023/07/06 02:02:19;;;;;;;8.60;2.70;;;17.60;79.00;;;;;;4882500;29;20044;-89
2023/07/06 02:04:47;;;;;;;8.48;2.95;;;17.50;79.10;;;;;;4895003;29;20391;-89
2023/07/06 02:07:16;;;;;;;7.60;2.67;;;17.50;79.50;;;;;;4897932;29;20111;-88
2023/07/06 02:09:44;;;;;;;6.53;2.50;;;17.50;79.40;;;;;;4900065;29;20058;-88
2023/07/06 02:12:14;;;;;;;7.93;3.00;;;17.50;79.30;;;;;;4900519;29;20063;-88
2023/07/06 02:14:42;;;;;;;11.82;3.03;;;17.50;79.30;;;;;;4884953;29;20569;-88
2023/07/06 02:17:10;;;;;;;7.25;2.83;;;17.50;79.30;;;;;;4885145;29;20040;-89
2023/07/06 02:19:38;;;;;;;6.85;3.03;;;17.50;79.00;;;;;;4909616;29;20040;-87
2023/07/06 02:22:05;;;;;;;6.07;2.47;;;17.50;78.60;;;;;;4884740;29;20052;-89
2023/07/06 02:24:32;;;;;;;9.52;3.28;;;17.60;78.50;;;;;;4898864;29;20455;-88
2023/07/06 02:27:00;;;;;;;11.85;3.78;;;17.50;78.70;;;;;;4900331;29;20430;-89
2023/07/06 02:29:28;;;;;;;7.85;2.97;;;17.50;78.90;;;;;;4883263;29;20054;-88
2023/07/06 02:31:55;;;;;;;8.90;3.60;;;17.50;78.80;;;;;;4883587;29;20060;-88
2023/07/06 02:34:25;;;;;;;6.57;2.77;;;17.40;79.30;;;;;;4884505;29;20079;-88
2023/07/06 02:36:53;;;;;;;9.40;3.28;;;17.40;79.10;;;;;;4899421;29;20052;-88
2023/07/06 02:39:24;;;;;;;10.25;3.53;;;17.30;79.20;;;;;;4899649;29;20152;-89
2023/07/06 02:41:54;;;;;;;8.88;3.53;;;17.30;78.90;;;;;;4884794;29;20044;-88
2023/07/06 02:44:22;;;;;;;9.52;3.90;;;17.30;79.10;;;;;;4884705;29;20045;-88
2023/07/06 02:46:50;;;;;;;11.57;3.27;;;17.20;79.40;;;;;;4900038;29;20040;-89
2023/07/06 02:49:17;;;;;;;8.27;3.35;;;17.10;79.50;;;;;;4916921;29;20059;-89
2023/07/06 02:51:46;;;;;;;9.10;3.28;;;17.10;79.40;;;;;;4884089;29;20044;-89
2023/07/06 02:54:16;;;;;;;7.00;2.70;;;17.10;78.90;;;;;;4899769;29;20044;-89
2023/07/06 02:56:43;;;;;;;11.85;3.05;;;17.20;78.60;;;;;;4900016;29;20044;-89
2023/07/06 02:59:10;;;;;;;8.57;3.10;;;17.20;78.70;;;;;;4899108;29;20554;-89
2023/07/06 03:01:37;;;;;;;8.15;3.03;;;17.20;78.70;;;;;;4897589;29;20403;-89
2023/07/06 03:04:10;;;;;;;9.02;2.83;;;17.10;78.70;;;;;;4884473;29;20139;-88
2023/07/06 03:06:38;;;;;;;9.32;2.90;;;17.10;78.50;;;;;;4898743;29;20076;-88
2023/07/06 03:09:07;;;;;;;12.65;3.17;;;17.20;78.40;;;;;;4899480;29;20054;-88
2023/07/06 03:11:36;;;;;;;11.03;3.73;;;17.20;78.50;;;;;;4881672;29;20554;-88
2023/07/06 03:14:04;;;;;;;10.00;3.25;;;17.30;78.60;;;;;;4891950;29;20494;-89
2023/07/06 03:16:39;;;;;;;9.02;3.53;;;17.30;78.80;;;;;;4899635;29;20048;-88
2023/07/06 03:19:12;;;;;;;10.45;3.38;;;17.40;79.00;;;;;;4890571;29;20044;-88
2023/07/06 03:21:40;;;;;;;9.50;4.63;;;17.40;79.10;;;;;;4883979;29;20044;-88
2023/07/06 03:24:07;;;;;;;9.87;3.60;;;17.40;79.30;;;;;;4883947;29;20048;-88
2023/07/06 03:26:36;;;;;;;14.00;3.85;;;17.50;79.60;;;;;;4897065;29;20585;-88
2023/07/06 03:29:05;;;;;;;11.98;4.10;;;17.50;79.60;;;;;;4881726;29;20040;-88
2023/07/06 03:31:33;;;;;;;14.77;3.40;;;17.50;79.70;;;;;;4899400;29;20069;-88
2023/07/06 03:34:01;;;;;;;10.10;3.83;;;17.60;79.90;;;;;;4899495;29;20431;-88
2023/07/06 03:36:33;;;;;;;10.97;3.63;;;17.50;80.10;;;;;;4885791;29;20049;-88
2023/07/06 03:39:02;;;;;;;13.00;4.05;;;17.50;80.20;;;;;;4893075;29;20205;-88
2023/07/06 03:41:32;;;;;;;10.93;3.80;;;17.60;80.10;;;;;;4899348;29;20062;-88
2023/07/06 03:44:04;;;;;;;10.52;3.50;;;17.60;80.30;;;;;;4899305;29;20048;-88
2023/07/06 03:46:33;;;;;;;9.82;3.45;;;17.60;80.30;;;;;;4882415;29;20032;-88
2023/07/06 03:49:08;;;;;;;9.23;3.33;;;17.70;80.30;;;;;;4884925;29;20036;-88
2023/07/06 03:51:38;;;;;;;11.23;4.00;;;17.80;80.50;;;;;;4899258;29;20044;-88
2023/07/06 03:54:08;;;;;;;9.25;3.75;;;17.80;80.40;;;;;;4883687;29;20046;-88
2023/07/06 03:56:37;;;;;;;7.38;3.03;;;17.90;80.10;;;;;;4883283;29;20052;-88
2023/07/06 03:59:05;;;;;;;13.70;3.05;;;18.00;79.60;;;;;;4881631;29;20040;-88
2023/07/06 04:01:36;;;;;;;10.17;2.90;;;18.10;79.40;;;;;;4883221;29;20052;-89
2023/07/06 04:04:06;;;;;;;12.95;3.28;;;18.30;78.80;;;;;;4892753;29;20048;-89
2023/07/06 04:06:40;;;;;;;10.10;3.38;;;18.40;79.30;;;;;;4902503;29;20147;-89
2023/07/06 04:09:09;;;;;;;10.43;3.22;;;18.30;79.20;;;;;;4887218;29;20108;-88
2023/07/06 04:11:37;;;;;;;11.02;3.28;;;18.40;79.00;;;;;;4902584;29;20044;-88
2023/07/06 04:14:06;;;;;;;10.60;3.10;;;18.40;78.50;;;;;;4887546;29;20044;-89
2023/07/06 04:16:34;;;;;;;8.82;3.13;;;18.50;77.50;;;;;;4902059;29;20052;-88
2023/07/06 04:19:05;;;;;;;9.73;3.45;;;18.50;77.50;;;;;;4902006;29;20063;-89
2023/07/06 04:21:38;;;;;;;8.90;3.33;;;18.40;77.70;;;;;;4892856;29;20157;-88
2023/07/06 04:24:08;;;;;;;9.55;2.83;;;18.40;78.00;;;;;;4886072;29;20119;-88
2023/07/06 04:26:37;;;;;;;9.87;3.13;;;18.40;77.20;;;;;;4901935;29;20444;-88
2023/07/06 04:29:04;;;;;;;8.55;2.85;;;18.40;77.30;;;;;;4885342;29;20131;-88
2023/07/06 04:31:31;;;;;;;9.13;2.85;;;18.40;76.30;;;;;;4885548;29;20060;-89
2023/07/06 04:34:03;;;;;;;9.77;2.88;;;18.50;74.90;;;;;;4885587;29;20044;-88
2023/07/06 04:36:33;;;;;;;9.75;3.50;;;18.50;77.10;;;;;;4885719;29;20041;-88
2023/07/06 04:39:04;;;;;;;8.80;2.40;;;18.60;78.10;;;;;;4886371;29;20048;-89
2023/07/06 04:41:31;;;;;;;10.25;2.85;;;18.80;76.20;;;;;;4901109;29;20395;-88
2023/07/06 04:44:11;;;;;;;8.55;2.63;;;18.80;77.00;;;;;;4885610;29;20399;-88
2023/07/06 04:46:39;;;;;;;9.07;2.85;;;19.00;76.80;;;;;;4900173;29;20574;-89
2023/07/06 04:49:07;;;;;;;10.65;2.50;;;19.10;73.70;;;;;;4886483;29;20044;-89
2023/07/06 04:51:35;;;;;;;8.90;2.73;;;19.10;73.10;;;;;;4902381;29;20036;-89
2023/07/06 04:54:03;;;;;;;9.60;2.35;;;19.10;73.00;;;;;;4892893;29;20553;-89
2023/07/06 04:56:30;;;;;;;7.13;2.53;;;19.30;71.60;;;;;;4902015;29;20067;-89
2023/07/06 04:58:57;;;;;;;7.72;2.60;;;19.30;71.10;;;;;;4901974;29;20683;-89
2023/07/06 05:01:25;;;;;;;9.82;2.95;;;19.30;71.60;;;;;;4886198;29;20036;-88
2023/07/06 05:03:52;;;;;;;10.10;2.93;;;19.40;72.80;;;;;;4901186;29;20491;-88
2023/07/06 05:06:19;;;;;;;8.52;2.40;;;19.50;74.50;;;;;;4884990;29;20052;-88
2023/07/06 05:08:49;;;;;;;7.63;2.63;;;19.60;73.80;;;;;;4892354;29;20056;-89
2023/07/06 05:11:16;;;;;;;8.07;1.73;;;19.60;72.40;;;;;;4884862;29;20048;-89
2023/07/06 05:13:45;;;;;;;7.30;2.30;;;19.70;72.10;;;;;;4901974;29;20048;-89
2023/07/06 05:16:15;;;;;;;8.90;3.47;;;19.80;69.40;;;;;;4901259;29;20048;-89
2023/07/06 05:18:43;;;;;;;7.80;2.30;;;19.90;69.30;;;;;;4884547;29;20040;-89
2023/07/06 05:21:10;;;;;;;8.40;2.60;;;19.90;68.50;;;;;;4901431;29;20131;-89
2023/07/06 05:23:37;;;;;;;7.68;2.70;;;19.90;69.90;;;;;;4885082;29;20050;-89
2023/07/06 05:26:04;;;;;;;7.90;2.63;;;19.90;70.60;;;;;;4901390;29;20073;-89
2023/07/06 05:28:32;;;;;;;10.23;3.13;;;20.00;69.40;;;;;;4917520;29;20430;-87
2023/07/06 05:31:02;;;;;;;8.30;2.20;;;20.10;68.40;;;;;;4898954;29;20051;-89
2023/07/06 05:33:32;;;;;;;9.35;2.78;;;20.10;68.30;;;;;;4886203;29;20553;-89
2023/07/06 05:36:01;;;;;;;9.60;2.60;;;20.10;68.00;;;;;;4901630;29;20096;-89
2023/07/06 05:38:28;;;;;;;10.60;2.63;;;20.10;67.60;;;;;;4899313;29;20072;-90
2023/07/06 05:41:01;;;;;;;10.40;2.80;;;20.20;67.00;;;;;;4886079;29;20071;-89
2023/07/06 05:43:28;;;;;;;7.25;2.92;;;20.20;68.00;;;;;;4900791;29;20043;-90
2023/07/06 05:45:57;;;;;;;11.20;3.30;;;20.30;68.20;;;;;;4884008;29;20043;-89
2023/07/06 05:48:27;;;;;;;9.07;2.83;;;20.30;66.90;;;;;;4901225;29;20059;-89
2023/07/06 05:50:54;;;;;;;10.05;2.80;;;20.30;66.60;;;;;;4886284;29;20058;-90
2023/07/06 05:53:21;;;;;;;9.13;2.20;;;20.20;68.30;;;;;;4883931;29;20170;-88
2023/07/06 05:55:48;;;;;;;9.15;2.40;;;20.10;67.40;;;;;;4898590;29;20135;-89
2023/07/06 05:58:16;;;;;;;8.25;2.38;;;20.10;66.80;;;;;;4884324;29;20526;-88
2023/07/06 06:00:43;;;;;;;8.18;2.22;;;20.10;67.20;;;;;;4899578;29;20075;-89
2023/07/06 06:03:16;;;;;;;7.63;2.15;;;20.10;67.00;;;;;;4898969;29;20044;-89
2023/07/06 06:05:43;;;;;;;7.23;2.40;;;20.20;67.30;;;;;;4899566;29;20076;-88
2023/07/06 06:08:10;;;;;;;7.45;2.05;;;20.20;64.70;;;;;;4899170;29;20127;-89
2023/07/06 06:10:43;;;;;;;9.20;2.40;;;20.10;64.40;;;;;;4901495;29;20069;-91
2023/07/06 06:13:11;;;;;;;5.82;2.08;;;20.30;65.20;;;;;;4882297;29;20050;-89
2023/07/06 06:15:38;;;;;;;8.23;2.38;;;20.20;64.10;;;;;;4898894;29;20051;-89
2023/07/06 06:18:05;;;;;;;9.87;2.20;;;20.30;64.00;;;;;;4898704;29;20045;-89
2023/07/06 06:20:33;;;;;;;7.93;2.22;;;20.30;64.30;;;;;;4900061;29;20047;-89
2023/07/06 06:23:04;;;;;;;7.57;2.28;;;20.30;65.10;;;;;;4897447;29;20048;-90
2023/07/06 06:25:31;;;;;;;9.77;2.28;;;20.30;64.00;;;;;;4891741;29;20398;-89
2023/07/06 06:27:58;;;;;;;7.32;2.30;;;20.40;63.90;;;;;;4899182;29;20044;-89
2023/07/06 06:30:42;;;;;;;7.67;2.77;;;20.50;63.60;;;;;;4886702;29;20107;-91
2023/07/06 06:34:10;;;;;;;8.27;2.42;;;20.60;63.50;;;;;;4901681;29;20100;-92
2023/07/06 06:36:38;;;;;;;7.75;2.50;;;20.70;63.80;;;;;;4880422;29;20052;-90
2023/07/06 06:39:06;;;;;;;7.63;2.50;;;20.90;61.20;;;;;;4886099;29;20044;-88
2023/07/06 06:41:34;;;;;;;11.18;2.20;;;20.90;62.60;;;;;;4901818;29;20591;-94
2023/07/06 06:44:02;;;;;;;7.93;2.07;;;21.00;61.30;;;;;;4902183;29;20095;-89
2023/07/06 06:46:30;;;;;;;7.30;2.22;;;20.90;62.70;;;;;;4899297;29;20055;-90
2023/07/06 06:48:57;;;;;;;7.75;2.15;;;20.80;61.90;;;;;;4899313;29;20058;-89
2023/07/06 06:51:27;;;;;;;7.20;2.17;;;20.80;62.10;;;;;;4881873;29;20071;-89
2023/07/06 06:53:54;;;;;;;11.45;2.45;;;20.80;61.60;;;;;;4898372;29;20092;-90
2023/07/06 06:56:24;;;;;;;8.03;2.30;;;20.70;61.50;;;;;;4898678;29;20040;-89
2023/07/06 06:58:52;;;;;;;7.80;2.28;;;20.80;62.40;;;;;;4884587;29;20139;-90
2023/07/06 07:01:20;;;;;;;6.53;2.10;;;20.90;62.30;;;;;;4884899;29;20036;-89
2023/07/06 07:03:48;;;;;;;6.18;2.20;;;21.00;61.90;;;;;;4899223;29;20123;-89
2023/07/06 07:06:18;;;;;;;6.55;2.10;;;21.10;61.30;;;;;;4891319;29;20494;-89
2023/07/06 07:08:49;;;;;;;9.47;2.07;;;21.10;60.50;;;;;;4883108;29;20150;-89
2023/07/06 07:11:21;;;;;;;7.20;2.05;;;21.10;61.30;;;;;;4898276;29;20048;-89
2023/07/06 07:13:52;;;;;;;9.90;2.58;;;21.10;60.90;;;;;;4897653;29;20107;-89
2023/07/06 07:16:20;;;;;;;10.50;2.10;;;21.20;61.50;;;;;;4895849;29;20091;-89
2023/07/06 07:18:48;;;;;;;6.38;1.75;;;21.40;60.20;;;;;;4898777;29;20038;-89
2023/07/06 07:21:17;;;;;;;13.43;2.77;;;21.60;58.40;;;;;;4897632;29;20044;-89
2023/07/06 07:23:49;;;;;;;8.18;2.30;;;21.80;58.00;;;;;;4885244;29;20099;-93
2023/07/06 07:26:19;;;;;;;6.75;1.80;;;22.00;59.70;;;;;;4901318;29;20048;-92
2023/07/06 07:28:51;;;;;;;12.93;2.30;;;21.90;58.20;;;;;;4901503;29;20052;-92
2023/07/06 07:31:22;;;;;;;6.90;1.85;;;21.90;58.60;;;;;;4901110;29;20052;-92
2023/07/06 07:33:49;;;;;;;5.57;1.77;;;21.90;57.50;;;;;;4882850;29;20049;-93
2023/07/06 07:36:18;;;;;;;7.55;2.10;;;21.90;55.50;;;;;;4867404;29;20069;-95
2023/07/06 07:38:48;;;;;;;6.57;2.00;;;22.00;57.20;;;;;;4870982;29;20048;-96
2023/07/06 07:41:18;;;;;;;7.90;1.83;;;22.30;55.40;;;;;;4889720;29;20048;-91
2023/07/06 07:43:48;;;;;;;9.13;2.05;;;22.40;55.50;;;;;;4905216;29;20080;-94
2023/07/06 07:46:19;;;;;;;6.77;1.73;;;22.60;55.10;;;;;;4903667;29;20506;-88
2023/07/06 07:48:49;;;;;;;8.18;1.85;;;22.90;55.00;;;;;;4891933;29;20487;-89
2023/07/06 07:51:19;;;;;;;9.15;2.08;;;23.00;55.90;;;;;;4909327;29;20392;-88
2023/07/06 07:53:47;;;;;;;7.65;1.92;;;23.00;54.40;;;;;;4900555;29;20078;-89
2023/07/06 07:56:15;;;;;;;6.88;1.77;;;23.00;54.10;;;;;;4899975;29;20533;-88
2023/07/06 07:58:48;;;;;;;6.23;1.40;;;23.10;52.00;;;;;;4921004;29;20432;-89
2023/07/06 08:01:21;;;;;;;7.57;1.90;;;23.30;52.20;;;;;;4902246;29;20380;-92
2023/07/06 08:03:54;;;;;;;7.60;2.00;;;23.50;51.20;;;;;;4884156;29;20068;-91
2023/07/06 08:06:23;;;;;;;6.35;1.73;;;23.50;49.70;;;;;;4904541;29;20384;-91
2023/07/06 08:08:50;;;;;;;6.57;1.77;;;23.60;49.20;;;;;;4888464;29;20063;-92
2023/07/06 08:11:23;;;;;;;6.50;1.60;;;23.50;50.70;;;;;;4888752;29;20051;-91
2023/07/06 08:13:53;;;;;;;7.95;1.70;;;23.10;48.60;;;;;;4888898;29;20078;-91
2023/07/06 08:16:23;;;;;;;8.55;2.38;;;23.00;51.10;;;;;;4889159;29;20063;-91
2023/07/06 08:18:51;;;;;;;6.75;1.95;;;22.90;50.40;;;;;;4888398;29;20072;-90
2023/07/06 08:21:40;;;;;;;6.93;1.65;;;22.80;50.20;;;;;;4904285;29;20044;-91
2023/07/06 08:24:29;;;;;;;6.83;1.60;;;22.70;49.80;;;;;;4904398;29;20043;-93
2023/07/06 08:27:00;;;;;;;5.45;1.73;;;22.60;50.40;;;;;;4904259;29;20048;-92
2023/07/06 08:29:27;;;;;;;6.53;2.03;;;22.50;50.70;;;;;;4903417;29;20048;-91
2023/07/06 08:31:56;;;;;;;7.82;1.77;;;22.60;50.90;;;;;;4903778;29;20056;-92
2023/07/06 08:34:26;;;;;;;7.47;2.00;;;22.80;52.20;;;;;;4903552;29;20059;-90
2023/07/06 08:36:54;;;;;;;7.40;2.00;;;23.00;50.80;;;;;;4888253;29;20054;-92
2023/07/06 08:39:22;;;;;;;7.00;1.90;;;23.10;50.20;;;;;;4890057;29;20044;-91
2023/07/06 08:41:53;;;;;;;7.40;1.60;;;23.00;49.50;;;;;;4902443;29;20095;-90
2023/07/06 08:44:24;;;;;;;8.90;1.85;;;22.80;51.00;;;;;;4893793;29;20459;-91
2023/07/06 08:46:54;;;;;;;6.93;1.85;;;22.60;50.90;;;;;;4895738;29;20067;-91
2023/07/06 08:49:32;;;;;;;5.70;1.43;;;22.80;51.30;;;;;;4902751;29;20138;-91
2023/07/06 08:52:03;;;;;;;7.60;1.80;;;22.80;50.70;;;;;;4900649;29;20058;-91
2023/07/06 08:54:34;;;;;;;6.20;1.70;;;22.80;51.10;;;;;;4884923;29;20047;-91
2023/07/06 08:57:04;;;;;;;7.15;2.03;;;22.70;49.60;;;;;;4899894;29;20475;-91
2023/07/06 08:59:43;;;;;;;7.57;1.77;;;22.80;51.20;;;;;;4902278;29;20554;-91
2023/07/06 09:02:21;;;;;;;7.93;2.00;;;22.80;52.90;;;;;;4909283;29;20040;-92
2023/07/06 09:04:50;;;;;;;5.82;1.63;;;22.80;51.60;;;;;;4902047;29;20040;-90
2023/07/06 09:07:39;;;;;;;5.88;1.63;;;22.80;52.60;;;;;;4888525;29;20055;-91
2023/07/06 09:10:28;;;;;;;5.85;1.67;;;22.80;53.70;;;;;;4908566;29;20040;-91
2023/07/06 09:13:11;;;;;;;6.68;1.90;;;22.60;51.60;;;;;;4902070;29;20051;-90
2023/07/06 09:15:39;;;;;;;10.00;2.20;;;22.40;51.80;;;;;;4902444;29;20127;-91
2023/07/06 09:18:12;;;;;;;5.47;1.45;;;22.20;52.30;;;;;;4902846;29;20414;-90
2023/07/06 09:20:44;;;;;;;6.88;1.95;;;22.00;53.20;;;;;;4886942;29;20047;-90
2023/07/06 09:23:15;;;;;;;6.93;1.92;;;21.90;53.20;;;;;;4902198;29;20072;-90
2023/07/06 09:25:44;;;;;;;7.65;1.90;;;21.90;54.20;;;;;;4903435;29;20055;-90
2023/07/06 09:28:26;;;;;;;5.53;1.67;;;21.90;54.10;;;;;;4903623;29;20048;-91
2023/07/06 09:31:19;;;;;;;8.88;2.20;;;21.90;54.40;;;;;;4904048;29;20052;-90
2023/07/06 09:33:49;;;;;;;10.15;1.90;;;21.90;55.10;;;;;;4904239;29;20060;-90
2023/07/06 09:36:23;;;;;;;6.35;1.85;;;21.90;54.40;;;;;;4903541;29;20629;-90
2023/07/06 09:38:51;;;;;;;7.35;2.10;;;21.80;54.70;;;;;;4903472;29;20477;-90
2023/07/06 09:41:26;;;;;;;6.43;1.87;;;21.60;54.50;;;;;;4903730;29;20051;-90
2023/07/06 09:44:41;;;;;;;10.18;2.47;;;21.60;55.00;;;;;;4904344;29;20051;-91
2023/07/06 09:47:15;;;;;;;7.75;2.17;;;21.60;55.70;;;;;;4885864;29;20048;-90
2023/07/06 09:49:49;;;;;;;7.53;1.90;;;21.70;56.40;;;;;;4887402;29;20110;-90
2023/07/06 09:52:18;;;;;;;8.60;2.60;;;21.80;55.80;;;;;;4887816;29;20056;-91
2023/07/06 09:55:30;;;;;;;6.10;1.93;;;21.80;55.90;;;;;;4903108;29;20623;-91
2023/07/06 09:57:59;;;;;;;6.75;1.77;;;21.80;56.90;;;;;;4812834;29;20417;-90
2023/07/06 10:00:42;;;;;;;8.48;2.25;;;21.70;57.30;;;;;;4872647;29;20045;-91
2023/07/06 10:03:35;;;;;;;8.48;2.28;;;21.60;57.20;;;;;;4901752;29;20056;-91
2023/07/06 10:06:30;;;;;;;8.52;1.92;;;21.60;57.30;;;;;;4887212;29;20143;-90
2023/07/06 10:09:25;;;;;;;7.27;1.80;;;21.50;57.60;;;;;;4902552;29;20132;-90
2023/07/06 10:11:57;;;;;;;9.23;2.00;;;21.40;55.50;;;;;;4878929;29;20052;-91
2023/07/06 10:14:28;;;;;;;7.18;1.98;;;21.30;55.90;;;;;;4902217;29;20048;-91
2023/07/06 10:17:18;;;;;;;7.50;1.95;;;21.30;57.20;;;;;;4902307;29;20071;-91
2023/07/06 10:20:12;;;;;;;6.13;2.10;;;21.40;58.10;;;;;;4886896;29;20151;-90
2023/07/06 10:22:47;;;;;;;6.10;1.90;;;21.50;57.20;;;;;;4887183;29;20495;-90
2023/07/06 10:25:18;;;;;;;7.40;2.03;;;21.50;57.70;;;;;;4902346;29;20065;-90
2023/07/06 10:27:55;;;;;;;6.60;2.13;;;21.60;58.50;;;;;;4902424;29;20108;-90
2023/07/06 10:30:31;;;;;;;8.10;2.10;;;21.60;59.30;;;;;;4886872;29;20503;-90
2023/07/06 10:33:06;;;;;;;8.88;2.35;;;21.70;58.90;;;;;;4902180;29;20502;-90
2023/07/06 10:35:39;;;;;;;9.33;2.30;;;21.80;58.10;;;;;;4902689;29;20040;-90
2023/07/06 10:38:10;;;;;;;7.00;1.60;;;21.90;56.90;;;;;;4885963;29;20120;-90
2023/07/06 10:40:40;;;;;;;7.97;1.90;;;21.80;56.20;;;;;;4887087;29;20051;-90
2023/07/06 10:43:13;;;;;;;6.30;1.85;;;21.70;56.60;;;;;;4901672;29;20051;-91
2023/07/06 10:45:42;;;;;;;8.38;2.10;;;21.70;56.80;;;;;;4901746;29;20052;-90
2023/07/06 10:48:24;;;;;;;5.00;1.40;;;21.60;56.50;;;;;;4895402;29;20048;-90
2023/07/06 10:51:06;;;;;;;8.45;2.05;;;21.50;55.50;;;;;;4867784;29;20053;-90
2023/07/06 10:53:39;;;;;;;7.72;1.90;;;21.40;56.00;;;;;;4894953;29;20040;-91
2023/07/06 10:56:17;;;;;;;7.10;2.28;;;21.40;56.70;;;;;;4900247;29;20056;-91
2023/07/06 10:59:04;;;;;;;9.85;2.72;;;21.40;57.20;;;;;;4896846;29;20066;-91
2023/07/06 11:01:43;;;;;;;6.90;2.10;;;21.50;58.80;;;;;;4901561;29;20079;-91
2023/07/06 11:04:41;;;;;;;8.48;1.80;;;21.50;56.90;;;;;;4878400;29;20074;-90
2023/07/06 11:07:41;;;;;;;7.63;2.05;;;21.50;55.00;;;;;;4901936;29;20059;-90
2023/07/06 11:10:15;;;;;;;6.30;1.80;;;21.60;56.40;;;;;;4867740;29;20044;-90
2023/07/06 11:13:16;;;;;;;6.38;2.20;;;21.60;55.90;;;;;;4882911;29;20087;-91
2023/07/06 11:15:43;;;;;;;6.90;2.10;;;21.80;56.00;;;;;;4904472;29;20415;-91
2023/07/06 11:18:34;;;;;;;5.55;1.85;;;21.80;54.40;;;;;;4885600;29;20051;-89
2023/07/06 11:21:06;;;;;;;7.03;1.92;;;21.80;54.70;;;;;;4900295;29;20051;-89
2023/07/06 11:23:57;;;;;;;6.57;2.00;;;22.00;54.40;;;;;;4900232;29;20044;-89
2023/07/06 11:26:47;;;;;;;5.70;1.80;;;22.10;54.60;;;;;;4884565;29;20380;-89
2023/07/06 11:29:18;;;;;;;10.83;2.30;;;22.10;55.30;;;;;;4884011;29;20075;-89
2023/07/06 11:32:04;;;;;;;6.80;2.30;;;22.20;53.80;;;;;;4902266;29;20080;-89
2023/07/06 11:35:03;;;;;;;7.75;2.47;;;22.30;55.10;;;;;;4881923;29;20067;-93
2023/07/06 11:37:45;;;;;;;7.47;2.42;;;22.30;54.70;;;;;;4886059;29;20048;-93
2023/07/06 11:40:46;;;;;;;8.27;2.50;;;22.40;56.90;;;;;;4887614;29;20055;-93
2023/07/06 11:43:38;;;;;;;10.37;3.00;;;22.40;55.20;;;;;;4901691;29;20044;-94
2023/07/06 11:46:23;;;;;;;8.82;2.40;;;22.60;53.70;;;;;;4896468;29;20096;-92
2023/07/06 11:49:24;;;;;;;8.10;2.33;;;23.10;57.20;;;;;;4901918;29;20051;-92
2023/07/06 11:51:52;;;;;;;7.70;2.55;;;23.50;54.80;;;;;;4901273;29;20051;-94
2023/07/06 11:57:24;;;;;;;7.93;2.17;;;23.60;53.00;;;;;;4897734;29;20071;-93
2023/07/06 12:01:10;;;;;;;8.90;2.45;;;23.50;51.00;;;;;;4883094;29;20045;-93
2023/07/06 12:03:08;;;;;;;7.90;2.60;;;23.50;51.80;;;;;;4890132;29;20044;-93
2023/07/06 12:05:51;;;;;;;7.75;2.80;;;23.50;52.90;;;;;;4901795;29;20075;-93
2023/07/06 12:08:28;;;;;;;6.18;2.33;;;23.50;54.30;;;;;;4867617;29;20074;-93
2023/07/06 12:11:05;;;;;;;8.40;2.63;;;23.80;53.70;;;;;;4895022;29;20084;-93
2023/07/06 12:13:37;;;;;;;9.20;2.70;;;23.80;52.20;;;;;;4886242;29;20048;-93
2023/07/06 12:16:28;;;;;;;8.00;2.97;;;24.00;51.00;;;;;;4901451;29;20052;-93
2023/07/06 12:19:03;;;;;;;7.18;2.40;;;24.20;51.30;;;;;;4886264;29;20533;-92
2023/07/06 12:21:34;;;;;;;9.65;2.80;;;24.20;51.50;;;;;;4901400;29;20074;-93
2023/07/06 12:24:06;;;;;;;9.13;3.00;;;24.30;50.60;;;;;;4886090;29;20052;-93
2023/07/06 12:26:40;;;;;;;8.30;2.67;;;24.20;49.20;;;;;;4897360;29;20055;-93
2023/07/06 12:29:14;;;;;;;9.20;2.55;;;24.20;49.30;;;;;;4889488;29;20052;-93
2023/07/06 12:31:44;;;;;;;9.00;2.63;;;24.50;50.70;;;;;;4889793;29;20419;-93
2023/07/06 12:34:20;;;;;;;8.55;2.78;;;24.60;50.40;;;;;;4904790;29;20506;-94
2023/07/06 12:36:49;;;;;;;7.63;2.70;;;24.80;51.90;;;;;;4887127;29;20068;-93
2023/07/06 12:39:19;;;;;;;7.95;2.58;;;24.80;49.10;;;;;;4883240;29;20048;-94
2023/07/06 12:41:47;;;;;;;8.82;2.53;;;24.70;50.70;;;;;;4905037;29;20530;-93
2023/07/06 12:44:17;;;;;;;7.80;2.65;;;24.60;49.60;;;;;;4904387;29;20060;-93
2023/07/06 12:46:54;;;;;;;7.60;2.40;;;24.60;49.60;;;;;;4907027;29;20048;-93
2023/07/06 12:49:23;;;;;;;7.57;2.40;;;24.60;49.70;;;;;;4889122;29;20533;-93
2023/07/06 12:51:54;;;;;;;7.03;2.33;;;24.20;47.90;;;;;;4889253;29;20052;-93
2023/07/06 12:54:23;;;;;;;7.20;2.95;;;24.10;52.30;;;;;;4904618;29;20048;-93
2023/07/06 12:57:03;;;;;;;9.52;2.60;;;24.20;50.80;;;;;;4888861;29;20067;-94
2023/07/06 12:59:33;;;;;;;9.60;2.92;;;24.50;50.60;;;;;;4899011;29;20056;-92
2023/07/06 13:02:16;;;;;;;7.77;2.80;;;24.50;49.30;;;;;;4901128;29;20508;-92
2023/07/06 13:04:45;;;;;;;6.93;2.10;;;24.40;49.20;;;;;;4904184;29;20466;-93
2023/07/06 13:07:19;;;;;;;8.57;2.72;;;24.30;49.10;;;;;;4903958;29;20447;-93
2023/07/06 13:10:06;;;;;;;7.72;2.45;;;24.30;49.30;;;;;;4897390;29;20080;-93
2023/07/06 13:12:34;;;;;;;8.50;2.70;;;24.40;51.80;;;;;;4900833;29;20053;-93
2023/07/06 13:15:04;;;;;;;10.73;2.30;;;24.60;49.70;;;;;;4885240;29;20456;-93
2023/07/06 13:17:32;;;;;;;8.63;2.97;;;24.60;48.30;;;;;;4900674;29;20104;-94
2023/07/06 13:19:59;;;;;;;7.68;2.67;;;24.60;47.70;;;;;;4885505;29;20139;-93